createdAt,value
2024-03-16T00:01:05.322Z,12.12
2024-03-16T00:03:33.325Z,12.12
2024-03-16T00:06:00.266Z,12.09
2024-03-16T00:08:27.161Z,12.06
2024-03-16T00:10:54.168Z,12.04
2024-03-16T00:13:20.952Z,12.04
2024-03-16T00:15:53.418Z,12.02
2024-03-16T00:18:20.215Z,11.97
2024-03-16T00:20:46.967Z,11.93
2024-03-16T00:23:13.940Z,11.94
2024-03-16T00:25:41.703Z,11.92
2024-03-16T00:28:09.138Z,11.89
2024-03-16T00:30:36.062Z,11.87
2024-03-16T00:33:03.432Z,11.85
2024-03-16T00:35:33.251Z,11.85
2024-03-16T00:38:00.062Z,11.78
2024-03-16T00:40:26.844Z,11.77
2024-03-16T00:42:53.672Z,11.75
2024-03-16T00:45:20.438Z,11.70
2024-03-16T00:47:47.411Z,11.66
2024-03-16T00:50:16.108Z,11.65
2024-03-16T00:52:43.020Z,11.62
2024-03-16T00:55:10.995Z,11.56
2024-03-16T00:57:38.045Z,11.55
2024-03-16T01:00:05.143Z,11.56
2024-03-16T01:02:32.758Z,11.57
2024-03-16T01:04:59.562Z,11.57
2024-03-16T01:07:29.324Z,11.57
2024-03-16T01:09:57.060Z,11.58
2024-03-16T01:12:23.929Z,11.61
2024-03-16T01:14:50.721Z,11.58
2024-03-16T01:17:17.613Z,11.56
2024-03-16T01:19:45.474Z,11.56
2024-03-16T01:22:12.567Z,11.55
2024-03-16T01:24:39.373Z,11.52
2024-03-16T01:27:06.707Z,11.50
2024-03-16T01:29:34.233Z,11.49
2024-03-16T01:32:09.211Z,11.49
2024-03-16T01:34:36.804Z,11.47
2024-03-16T01:37:03.906Z,11.48
2024-03-16T01:39:31.387Z,11.49
2024-03-16T01:42:09.901Z,11.50
2024-03-16T01:44:36.655Z,11.50
2024-03-16T01:47:04.823Z,11.51
2024-03-16T01:49:31.571Z,11.53
2024-03-16T01:52:01.494Z,11.54
2024-03-16T01:54:28.472Z,11.57
2024-03-16T01:56:55.340Z,11.62
2024-03-16T01:59:22.212Z,11.61
2024-03-16T02:01:49.410Z,11.63
2024-03-16T02:04:16.345Z,11.63
2024-03-16T02:06:50.434Z,11.67
2024-03-16T02:09:17.366Z,11.70
2024-03-16T02:11:44.123Z,11.71
2024-03-16T02:14:11.018Z,11.72
2024-03-16T02:16:37.909Z,11.73
2024-03-16T02:19:04.820Z,11.74
2024-03-16T02:21:31.627Z,11.76
2024-03-16T02:23:58.987Z,11.76
2024-03-16T02:26:26.174Z,11.78
2024-03-16T02:28:53.266Z,11.80
2024-03-16T02:31:20.026Z,11.76
2024-03-16T02:33:46.816Z,11.76
2024-03-16T02:36:14.671Z,11.77
2024-03-16T02:38:41.904Z,11.76
2024-03-16T02:41:08.960Z,11.75
2024-03-16T02:43:35.815Z,11.76
2024-03-16T02:46:02.603Z,11.74
2024-03-16T02:48:29.410Z,11.75
2024-03-16T02:50:56.272Z,11.77
2024-03-16T02:53:24.161Z,11.78
2024-03-16T02:55:50.956Z,11.78
2024-03-16T02:58:17.887Z,11.78
2024-03-16T03:00:45.634Z,11.79
2024-03-16T03:03:13.452Z,11.81
2024-03-16T03:05:40.880Z,11.83
2024-03-16T03:08:07.683Z,11.83
2024-03-16T03:10:34.448Z,11.81
2024-03-16T03:13:02.906Z,11.85
2024-03-16T03:15:29.882Z,11.77
2024-03-16T03:17:56.703Z,11.79
2024-03-16T03:20:25.259Z,11.78
2024-03-16T03:22:52.143Z,11.78
2024-03-16T03:25:20.466Z,11.78
2024-03-16T03:27:47.542Z,11.78
2024-03-16T03:30:14.454Z,11.77
2024-03-16T03:32:41.570Z,11.76
2024-03-16T03:35:08.550Z,11.76
2024-03-16T03:37:35.623Z,11.78
2024-03-16T03:40:02.577Z,11.77
2024-03-16T03:42:31.099Z,11.75
2024-03-16T03:45:15.782Z,11.77
2024-03-16T03:48:02.018Z,11.75
2024-03-16T03:50:30.642Z,11.75
2024-03-16T03:53:00.879Z,11.77
2024-03-16T03:55:27.858Z,11.75
2024-03-16T03:57:55.904Z,11.76
2024-03-16T04:00:26.759Z,11.77
2024-03-16T04:02:53.567Z,11.76
2024-03-16T04:05:20.427Z,11.77
2024-03-16T04:07:47.468Z,11.78
2024-03-16T04:10:14.247Z,11.78
2024-03-16T04:12:41.212Z,11.77
2024-03-16T04:15:08.150Z,11.77
2024-03-16T04:17:34.928Z,11.75
2024-03-16T04:20:02.005Z,11.72
2024-03-16T04:22:28.725Z,11.73
2024-03-16T04:24:55.653Z,11.71
2024-03-16T04:27:22.524Z,11.72
2024-03-16T04:29:49.258Z,11.70
2024-03-16T04:32:16.005Z,11.68
2024-03-16T04:34:42.824Z,11.66
2024-03-16T04:37:10.222Z,11.64
2024-03-16T04:39:37.200Z,11.58
2024-03-16T04:42:04.097Z,11.52
2024-03-16T04:44:30.842Z,11.46
2024-03-16T04:46:58.237Z,11.38
2024-03-16T04:49:25.046Z,11.35
2024-03-16T04:51:51.998Z,11.31
2024-03-16T04:54:18.867Z,11.30
2024-03-16T04:56:45.601Z,11.25
2024-03-16T04:59:12.825Z,11.24
2024-03-16T05:01:39.785Z,11.21
2024-03-16T05:04:06.892Z,11.20
2024-03-16T05:06:35.319Z,11.18
2024-03-16T05:09:09.334Z,11.17
2024-03-16T05:11:37.554Z,11.17
2024-03-16T05:14:07.694Z,11.14
2024-03-16T05:16:35.214Z,11.12
2024-03-16T05:19:04.141Z,11.12
2024-03-16T05:21:34.541Z,11.14
2024-03-16T05:24:03.029Z,11.09
2024-03-16T05:26:32.571Z,11.07
2024-03-16T05:28:59.476Z,11.10
2024-03-16T05:31:27.428Z,11.07
2024-03-16T05:33:54.533Z,11.10
2024-03-16T05:36:24.767Z,11.11
2024-03-16T05:38:51.674Z,11.05
2024-03-16T05:41:18.567Z,11.04
2024-03-16T05:43:45.796Z,11.04
2024-03-16T05:46:13.109Z,11.04
2024-03-16T05:48:40.135Z,11.03
2024-03-16T05:51:07.165Z,10.99
2024-03-16T05:53:33.965Z,11.00
2024-03-16T05:56:00.745Z,11.02
2024-03-16T05:58:27.610Z,11.05
2024-03-16T06:00:55.402Z,11.07
2024-03-16T06:03:22.287Z,11.06
2024-03-16T06:05:49.081Z,11.09
2024-03-16T06:08:15.811Z,11.07
2024-03-16T06:10:43.186Z,11.10
2024-03-16T06:13:12.272Z,11.12
2024-03-16T06:15:40.898Z,11.09
2024-03-16T06:18:07.968Z,11.05
2024-03-16T06:20:35.040Z,11.07
2024-03-16T06:23:02.068Z,11.09
2024-03-16T06:25:30.924Z,11.07
2024-03-16T06:28:07.982Z,11.08
2024-03-16T06:30:37.316Z,11.07
2024-03-16T06:33:07.676Z,11.09
2024-03-16T06:35:34.849Z,11.14
2024-03-16T06:38:01.699Z,11.15
2024-03-16T06:40:31.583Z,11.14
2024-03-16T06:42:58.471Z,11.12
2024-03-16T06:45:25.227Z,11.13
2024-03-16T06:47:52.193Z,11.13
2024-03-16T06:50:19.126Z,11.15
2024-03-16T06:52:46.820Z,11.17
2024-03-16T06:55:14.822Z,11.19
2024-03-16T06:57:41.686Z,11.14
2024-03-16T07:00:10.662Z,11.17
2024-03-16T07:02:37.434Z,11.20
2024-03-16T07:05:04.411Z,11.18
2024-03-16T07:07:31.821Z,11.18
2024-03-16T07:09:59.465Z,11.22
2024-03-16T07:12:26.309Z,11.19
2024-03-16T07:14:53.221Z,11.21
2024-03-16T07:17:20.194Z,11.19
2024-03-16T07:19:47.212Z,11.13
2024-03-16T07:22:14.491Z,11.10
2024-03-16T07:24:41.388Z,11.07
2024-03-16T07:27:08.804Z,11.05
2024-03-16T07:29:35.636Z,11.01
2024-03-16T07:32:02.442Z,11.06
2024-03-16T07:34:29.668Z,11.17
2024-03-16T07:36:58.684Z,11.33
2024-03-16T07:39:25.672Z,11.43
2024-03-16T07:41:54.765Z,11.47
2024-03-16T07:44:21.746Z,11.47
2024-03-16T07:46:49.727Z,11.53
2024-03-16T07:49:16.595Z,11.49
2024-03-16T07:51:45.450Z,11.49
2024-03-16T07:54:16.737Z,11.50
2024-03-16T07:56:43.495Z,11.53
2024-03-16T07:59:11.209Z,11.62
2024-03-16T08:01:38.314Z,11.72
2024-03-16T08:04:05.914Z,11.80
2024-03-16T08:06:32.928Z,11.90
2024-03-16T08:09:00.027Z,11.96
2024-03-16T08:11:29.340Z,11.97
2024-03-16T08:13:56.200Z,12.00
2024-03-16T08:16:23.139Z,11.99
2024-03-16T08:18:50.536Z,12.01
2024-03-16T08:21:17.660Z,11.97
2024-03-16T08:23:45.409Z,12.03
2024-03-16T08:26:13.913Z,12.05
2024-03-16T08:28:40.763Z,12.08
2024-03-16T08:31:07.714Z,12.10
2024-03-16T08:33:34.682Z,12.06
2024-03-16T08:36:01.549Z,12.11
2024-03-16T08:38:28.555Z,12.11
2024-03-16T08:40:56.932Z,12.09
2024-03-16T08:43:23.978Z,12.15
2024-03-16T08:45:50.966Z,12.13
2024-03-16T08:48:17.899Z,12.14
2024-03-16T08:50:46.014Z,12.11
2024-03-16T08:53:12.790Z,12.18
2024-03-16T08:55:39.679Z,12.25
2024-03-16T08:58:08.731Z,12.37
2024-03-16T09:00:35.603Z,12.48
2024-03-16T09:03:02.466Z,12.62
2024-03-16T09:05:29.463Z,12.71
2024-03-16T09:07:56.220Z,12.79
2024-03-16T09:10:36.711Z,12.76
2024-03-16T09:13:03.500Z,12.77
2024-03-16T09:15:30.411Z,12.71
2024-03-16T09:17:57.218Z,12.73
2024-03-16T09:20:24.030Z,12.70
2024-03-16T09:22:53.556Z,12.70
2024-03-16T09:25:22.081Z,12.67
2024-03-16T09:27:49.114Z,12.67
2024-03-16T09:30:21.841Z,12.72
2024-03-16T09:32:48.600Z,12.77
2024-03-16T09:35:15.652Z,12.85
2024-03-16T09:37:42.490Z,12.94
2024-03-16T09:40:15.441Z,13.04
2024-03-16T09:42:42.624Z,13.00
